Time;durP1;ratioP1;P1;durP2;ratioP2;P2;SDS_P1;SDS_P2;PMS_P1;PMS_P2;Temp;Humidity;BMP_temperature;BMP_pressure;BME280_temperature;BME280_humidity;BME280_pressure;Samples;Min_cycle;Max_cycle;Signal;HPM_P1;HPM_P2
2022/01/31 00:00:22;;;;;;;14.87;4.43;;;7.70;99.90;;;;;;5025748;28;20219;-25
2022/01/31 00:02:49;;;;;;;13.43;4.37;;;7.70;99.90;;;;;;5027700;28;20235;-25
2022/01/31 00:05:17;;;;;;;14.17;3.87;;;7.70;99.90;;;;;;5027664;28;20684;-25
2022/01/31 00:07:47;;;;;;;13.13;4.37;;;7.70;99.90;;;;;;5029566;28;20197;-25
2022/01/31 00:10:27;;;;;;;15.53;3.83;;;7.70;99.90;;;;;;5030923;28;20229;-25
2022/01/31 00:13:10;;;;;;;9.53;4.03;;;7.70;99.90;;;;;;5031629;28;20209;-25
2022/01/31 00:15:46;;;;;;;15.13;4.27;;;7.70;99.90;;;;;;5027375;28;20594;-25
2022/01/31 00:18:13;;;;;;;15.57;4.27;;;7.70;99.90;;;;;;5031548;28;20597;-25
2022/01/31 00:20:41;;;;;;;15.23;4.07;;;7.70;99.90;;;;;;5030813;28;20347;-25
2022/01/31 00:23:08;;;;;;;15.33;4.27;;;7.80;99.90;;;;;;5031084;28;20584;-25
2022/01/31 00:25:35;;;;;;;16.23;4.97;;;7.80;99.90;;;;;;5030296;28;20207;-23
2022/01/31 00:28:02;;;;;;;14.93;4.97;;;7.80;99.90;;;;;;5030167;28;20235;-23
2022/01/31 00:30:30;;;;;;;17.53;4.67;;;7.80;99.90;;;;;;5029645;28;20209;-23
2022/01/31 00:33:02;;;;;;;15.60;4.97;;;7.80;99.90;;;;;;5029502;28;20197;-23
2022/01/31 00:35:32;;;;;;;17.30;4.93;;;7.80;99.90;;;;;;5030785;28;20741;-23
2022/01/31 00:37:59;;;;;;;19.13;5.07;;;7.80;99.90;;;;;;5030925;28;20204;-23
2022/01/31 00:40:30;;;;;;;15.03;5.53;;;7.80;99.90;;;;;;5030325;28;20197;-23
2022/01/31 00:42:57;;;;;;;17.43;5.50;;;7.90;99.90;;;;;;5028715;28;20251;-23
2022/01/31 00:45:29;;;;;;;19.20;5.30;;;7.90;99.90;;;;;;5028778;28;20201;-23
2022/01/31 00:48:03;;;;;;;12.03;4.70;;;7.90;99.90;;;;;;5026495;28;20745;-29
2022/01/31 00:50:39;;;;;;;14.77;4.47;;;7.90;99.90;;;;;;5029958;28;20232;-24
2022/01/31 00:53:07;;;;;;;13.83;4.60;;;7.90;99.90;;;;;;5029456;28;20200;-24
2022/01/31 00:55:34;;;;;;;15.77;4.60;;;8.00;99.90;;;;;;5030387;28;20282;-24
2022/01/31 00:58:01;;;;;;;15.23;4.73;;;8.00;99.90;;;;;;5030866;28;20741;-23
2022/01/31 01:00:29;;;;;;;13.17;4.17;;;8.00;99.90;;;;;;5027052;28;20236;-23
2022/01/31 01:02:56;;;;;;;18.47;4.57;;;8.00;99.90;;;;;;5026194;28;20235;-23
2022/01/31 01:05:26;;;;;;;17.37;4.27;;;8.00;99.90;;;;;;5030474;28;20238;-23
2022/01/31 01:07:53;;;;;;;13.97;3.93;;;8.00;99.90;;;;;;5029471;28;20197;-23
2022/01/31 01:10:23;;;;;;;10.13;3.20;;;8.10;99.90;;;;;;5029814;28;20770;-28
2022/01/31 01:12:50;;;;;;;13.73;4.00;;;8.10;99.90;;;;;;5027364;28;20201;-26
2022/01/31 01:15:18;;;;;;;14.03;3.33;;;8.10;99.90;;;;;;5028311;28;20201;-25
2022/01/31 01:17:47;;;;;;;17.07;3.70;;;8.10;99.90;;;;;;5013924;28;20626;-25
2022/01/31 01:20:17;;;;;;;9.20;3.33;;;8.10;99.90;;;;;;5029891;28;20415;-23
2022/01/31 01:22:45;;;;;;;13.63;3.70;;;8.10;99.90;;;;;;5026592;28;20569;-24
2022/01/31 01:25:14;;;;;;;12.73;2.70;;;8.10;99.90;;;;;;5024190;28;20540;-23
2022/01/31 01:27:49;;;;;;;19.53;4.03;;;8.20;99.90;;;;;;5029497;28;20348;-23
2022/01/31 01:30:20;;;;;;;12.50;2.80;;;8.20;99.90;;;;;;5021051;28;20295;-23
2022/01/31 01:33:18;;;;;;;14.23;3.03;;;8.20;99.90;;;;;;5041014;28;20196;-23
2022/01/31 01:35:39;;;;;;;15.00;3.53;;;8.20;99.90;;;;;;5023864;28;20244;-23
2022/01/31 01:38:07;;;;;;;11.53;3.13;;;8.20;99.90;;;;;;5030058;28;20210;-23
2022/01/31 01:40:43;;;;;;;13.83;3.20;;;8.20;99.90;;;;;;5029310;28;20254;-24
2022/01/31 01:43:11;;;;;;;13.53;3.20;;;8.20;99.90;;;;;;5028880;28;20219;-23
2022/01/31 01:45:41;;;;;;;13.97;2.77;;;8.20;99.90;;;;;;5024053;28;20251;-23
2022/01/31 01:48:10;;;;;;;10.93;3.00;;;8.20;99.90;;;;;;5029396;28;20687;-23
2022/01/31 01:50:39;;;;;;;14.90;2.87;;;8.30;99.90;;;;;;5028412;28;20239;-23
2022/01/31 01:53:08;;;;;;;12.57;2.87;;;8.30;99.90;;;;;;5029167;28;21022;-23
2022/01/31 01:55:40;;;;;;;11.43;3.00;;;8.30;99.90;;;;;;5023775;28;20205;-23
2022/01/31 01:58:14;;;;;;;14.40;3.20;;;8.30;99.90;;;;;;5025163;28;20672;-23
2022/01/31 02:00:50;;;;;;;9.60;3.17;;;8.30;99.90;;;;;;5025561;28;20218;-23
2022/01/31 02:03:18;;;;;;;9.97;2.40;;;8.30;99.90;;;;;;5027511;28;20212;-23
2022/01/31 02:05:51;;;;;;;11.90;2.63;;;8.30;99.90;;;;;;5011076;28;20193;-25
2022/01/31 02:08:19;;;;;;;8.27;2.40;;;8.30;99.90;;;;;;5024573;28;20213;-25
2022/01/31 02:10:47;;;;;;;14.77;2.87;;;8.30;99.90;;;;;;5027509;28;20565;-25
2022/01/31 02:13:17;;;;;;;12.20;2.63;;;8.30;99.90;;;;;;5031412;28;20212;-25
2022/01/31 02:15:46;;;;;;;12.47;2.50;;;8.30;99.90;;;;;;5019637;28;20296;-25
2022/01/31 02:18:15;;;;;;;9.20;3.13;;;8.30;99.90;;;;;;5016072;28;20221;-25
2022/01/31 02:20:43;;;;;;;12.03;3.13;;;8.30;99.90;;;;;;5027747;28;20219;-25
2022/01/31 02:23:15;;;;;;;8.17;2.20;;;8.30;99.90;;;;;;5028518;28;20201;-25
2022/01/31 02:26:03;;;;;;;9.30;2.47;;;8.30;99.90;;;;;;5024176;28;20758;-25
2022/01/31 02:28:35;;;;;;;9.50;2.67;;;8.30;99.90;;;;;;5026892;28;20209;-24
2022/01/31 02:31:06;;;;;;;9.33;2.50;;;8.30;99.90;;;;;;5026110;28;20295;-25
2022/01/31 02:33:36;;;;;;;6.73;2.10;;;8.30;99.90;;;;;;5023262;28;20599;-25
2022/01/31 02:36:05;;;;;;;7.43;2.47;;;8.30;99.90;;;;;;5028181;28;20248;-25
2022/01/31 02:38:34;;;;;;;6.43;1.90;;;8.30;99.90;;;;;;5028087;28;20197;-25
2022/01/31 02:41:04;;;;;;;8.50;1.83;;;8.40;99.90;;;;;;5027197;28;20201;-25
2022/01/31 02:43:33;;;;;;;9.60;2.00;;;8.30;99.90;;;;;;5027605;28;20596;-24
2022/01/31 02:46:02;;;;;;;6.47;1.83;;;8.30;99.90;;;;;;5025960;28;20225;-25
2022/01/31 02:48:34;;;;;;;6.57;1.70;;;8.40;99.90;;;;;;5025685;28;20205;-25
2022/01/31 02:51:08;;;;;;;4.43;1.50;;;8.30;99.90;;;;;;5027840;28;20243;-25
2022/01/31 02:53:41;;;;;;;3.87;1.60;;;8.30;99.90;;;;;;5027838;28;20232;-24
2022/01/31 02:56:09;;;;;;;4.50;1.57;;;8.40;99.90;;;;;;5027105;28;20196;-25
2022/01/31 02:58:36;;;;;;;5.03;1.37;;;8.40;99.90;;;;;;5022148;28;20201;-25
2022/01/31 03:01:07;;;;;;;3.90;1.10;;;8.40;99.90;;;;;;5026744;28;20203;-25
2022/01/31 03:03:34;;;;;;;4.80;0.93;;;8.40;99.90;;;;;;5027861;28;20208;-25
2022/01/31 03:06:02;;;;;;;4.63;1.27;;;8.40;99.90;;;;;;5025928;28;20297;-24
2022/01/31 03:08:30;;;;;;;2.60;0.90;;;8.40;99.90;;;;;;5023131;28;20538;-24
2022/01/31 03:11:00;;;;;;;4.57;2.07;;;8.40;99.90;;;;;;5027062;28;20208;-25
2022/01/31 03:13:27;;;;;;;3.00;1.20;;;8.40;99.90;;;;;;5023168;28;20216;-24
2022/01/31 03:15:57;;;;;;;3.70;1.00;;;8.40;99.90;;;;;;5024986;28;20200;-24
2022/01/31 03:18:24;;;;;;;4.10;1.10;;;8.40;99.90;;;;;;5026270;28;20197;-24
2022/01/31 03:20:57;;;;;;;2.80;0.83;;;8.50;99.90;;;;;;5027212;28;20682;-24
2022/01/31 03:23:26;;;;;;;4.17;1.20;;;8.50;99.90;;;;;;5021956;28;20295;-25
2022/01/31 03:25:54;;;;;;;2.23;1.10;;;8.50;99.90;;;;;;5026372;28;20215;-24
2022/01/31 03:28:21;;;;;;;2.87;0.90;;;8.50;99.90;;;;;;5026696;28;20251;-24
2022/01/31 03:30:51;;;;;;;4.27;1.50;;;8.50;99.90;;;;;;5014650;28;20596;-24
2022/01/31 03:33:18;;;;;;;3.87;1.90;;;8.50;99.90;;;;;;5026364;28;20635;-24
2022/01/31 03:35:46;;;;;;;2.83;1.03;;;8.50;99.90;;;;;;5021746;28;20797;-24
2022/01/31 03:38:13;;;;;;;4.33;1.30;;;8.50;99.90;;;;;;5027208;28;20303;-25
2022/01/31 03:40:40;;;;;;;2.83;1.30;;;8.60;99.90;;;;;;5040381;28;20200;-24
2022/01/31 03:43:14;;;;;;;4.10;1.20;;;8.60;99.90;;;;;;5031363;28;20907;-24
2022/01/31 03:45:43;;;;;;;6.40;1.70;;;8.60;99.90;;;;;;5028279;28;20586;-24
2022/01/31 03:48:11;;;;;;;7.67;1.60;;;8.60;99.90;;;;;;5030148;28;20225;-24
2022/01/31 03:50:39;;;;;;;6.43;1.47;;;8.60;99.90;;;;;;5031009;28;20478;-25
2022/01/31 03:53:06;;;;;;;5.70;1.50;;;8.60;99.90;;;;;;5031124;28;20232;-23
2022/01/31 03:55:38;;;;;;;4.53;1.33;;;8.70;99.90;;;;;;5026373;28;20202;-22
2022/01/31 03:58:06;;;;;;;7.97;1.97;;;8.70;99.90;;;;;;5028749;28;20205;-23
2022/01/31 04:00:35;;;;;;;6.03;1.90;;;8.60;99.90;;;;;;5029193;28;20201;-22
2022/01/31 04:03:03;;;;;;;11.57;2.10;;;8.70;99.90;;;;;;5030679;28;20553;-23
2022/01/31 04:05:31;;;;;;;5.57;1.50;;;8.70;99.90;;;;;;5016128;28;20255;-23
2022/01/31 04:08:00;;;;;;;7.07;1.87;;;8.70;99.90;;;;;;5012771;28;20786;-23
2022/01/31 04:10:28;;;;;;;10.50;1.93;;;8.70;99.90;;;;;;5016380;28;20197;-23
2022/01/31 04:12:55;;;;;;;6.27;1.63;;;8.70;99.90;;;;;;5028967;28;20259;-23
2022/01/31 04:15:23;;;;;;;11.07;2.53;;;8.70;99.90;;;;;;5027920;28;20219;-23
2022/01/31 04:17:50;;;;;;;11.00;2.30;;;8.70;99.90;;;;;;5040927;28;20227;-22
2022/01/31 04:20:18;;;;;;;13.70;1.97;;;8.70;99.90;;;;;;5029378;28;20204;-22
2022/01/31 04:23:00;;;;;;;8.47;1.70;;;8.70;99.90;;;;;;5029168;28;20253;-23
2022/01/31 04:25:29;;;;;;;8.97;1.83;;;8.70;99.90;;;;;;5029693;28;20588;-22
2022/01/31 04:28:06;;;;;;;9.33;1.80;;;8.70;99.90;;;;;;5027142;28;20217;-22
2022/01/31 04:30:45;;;;;;;8.00;1.63;;;8.70;99.90;;;;;;5020994;28;20690;-22
2022/01/31 04:33:12;;;;;;;10.57;2.03;;;8.70;99.90;;;;;;5030283;28;20563;-22
2022/01/31 04:35:40;;;;;;;8.97;1.93;;;8.70;99.90;;;;;;5030823;28;20201;-22
2022/01/31 04:38:09;;;;;;;8.93;1.87;;;8.70;99.90;;;;;;5026808;28;20620;-23
2022/01/31 04:40:39;;;;;;;7.03;2.13;;;8.70;99.90;;;;;;5030026;28;20237;-22
2022/01/31 04:43:06;;;;;;;11.03;1.90;;;8.70;99.90;;;;;;5030351;28;20278;-22
2022/01/31 04:45:36;;;;;;;11.33;1.80;;;8.60;99.90;;;;;;5019731;28;20223;-23
2022/01/31 04:48:04;;;;;;;13.30;2.17;;;8.60;99.90;;;;;;5016761;28;20287;-23
2022/01/31 04:50:31;;;;;;;9.10;1.80;;;8.60;99.90;;;;;;5029035;28;20229;-23
2022/01/31 04:52:59;;;;;;;10.53;2.00;;;8.60;99.90;;;;;;5029614;28;20208;-22
2022/01/31 04:55:26;;;;;;;8.33;1.80;;;8.50;99.90;;;;;;5027641;28;20197;-22
2022/01/31 04:57:58;;;;;;;6.10;1.83;;;8.60;99.90;;;;;;5016542;28;20988;-22
2022/01/31 05:00:27;;;;;;;13.63;2.30;;;8.60;99.90;;;;;;5013283;28;20205;-22
2022/01/31 05:02:55;;;;;;;6.97;1.57;;;8.60;99.90;;;;;;5030867;28;20193;-22
2022/01/31 05:05:22;;;;;;;8.43;2.10;;;8.50;99.90;;;;;;5024134;28;20216;-23
2022/01/31 05:07:52;;;;;;;9.13;1.90;;;8.50;99.90;;;;;;5010474;28;20575;-22
2022/01/31 05:10:20;;;;;;;8.87;1.60;;;8.50;99.90;;;;;;5027365;28;20223;-22
2022/01/31 05:12:47;;;;;;;7.13;1.67;;;8.50;99.90;;;;;;5029825;28;20289;-22
2022/01/31 05:15:17;;;;;;;7.97;1.60;;;8.50;99.90;;;;;;5026309;28;20209;-23
2022/01/31 05:17:45;;;;;;;10.00;1.60;;;8.50;99.90;;;;;;5015876;28;20292;-23
2022/01/31 05:20:14;;;;;;;9.83;2.10;;;8.50;99.90;;;;;;5024114;28;20259;-23
2022/01/31 05:22:42;;;;;;;5.70;1.70;;;8.50;99.90;;;;;;5029051;28;20209;-23
2022/01/31 05:25:12;;;;;;;7.67;1.63;;;8.50;99.90;;;;;;5029362;28;20673;-23
2022/01/31 05:27:39;;;;;;;11.73;1.83;;;8.50;99.90;;;;;;5027424;28;20217;-23
2022/01/31 05:30:07;;;;;;;10.07;2.10;;;8.50;99.90;;;;;;5028514;28;20292;-22
2022/01/31 05:32:38;;;;;;;11.43;2.20;;;8.50;99.90;;;;;;5028974;28;20208;-23
2022/01/31 05:35:08;;;;;;;6.00;1.50;;;8.40;99.90;;;;;;5029216;28;20205;-23
2022/01/31 05:37:35;;;;;;;7.77;1.73;;;8.40;99.90;;;;;;5029577;28;20630;-23
2022/01/31 05:40:06;;;;;;;10.60;2.00;;;8.40;99.90;;;;;;5029453;28;20684;-23
2022/01/31 05:42:35;;;;;;;7.97;1.97;;;8.40;99.90;;;;;;5028308;28;20295;-23
2022/01/31 05:45:09;;;;;;;11.20;2.20;;;8.40;99.90;;;;;;5027424;28;20201;-23
2022/01/31 05:47:36;;;;;;;7.43;2.00;;;8.40;99.90;;;;;;5028968;28;20228;-23
2022/01/31 05:50:07;;;;;;;10.33;2.20;;;8.40;99.90;;;;;;5028756;28;20201;-23
2022/01/31 05:52:34;;;;;;;13.23;2.40;;;8.40;99.90;;;;;;5028791;28;20212;-23
2022/01/31 05:55:02;;;;;;;14.57;2.10;;;8.30;99.90;;;;;;5028068;28;20292;-23
2022/01/31 05:57:32;;;;;;;11.13;1.80;;;8.40;99.90;;;;;;5029042;28;20212;-23
2022/01/31 06:00:01;;;;;;;13.07;2.53;;;8.40;99.90;;;;;;5025269;28;20538;-22
2022/01/31 06:02:28;;;;;;;12.27;1.90;;;8.40;99.90;;;;;;5028936;28;20227;-23
2022/01/31 06:04:55;;;;;;;9.50;1.63;;;8.40;99.90;;;;;;5027954;28;20296;-23
2022/01/31 06:07:27;;;;;;;12.70;2.43;;;8.40;99.90;;;;;;5028776;28;20217;-23
2022/01/31 06:09:54;;;;;;;10.90;1.70;;;8.30;99.90;;;;;;5027840;28;20211;-23
2022/01/31 06:12:22;;;;;;;9.60;1.80;;;8.30;99.90;;;;;;5028117;28;20664;-23
2022/01/31 06:14:49;;;;;;;10.27;2.60;;;8.30;99.90;;;;;;5027534;28;20575;-23
2022/01/31 06:17:16;;;;;;;14.00;2.23;;;8.30;99.90;;;;;;5026816;28;20215;-23
2022/01/31 06:19:44;;;;;;;12.97;2.10;;;8.30;99.90;;;;;;5028154;28;20216;-23
2022/01/31 06:22:11;;;;;;;15.93;2.47;;;8.30;99.90;;;;;;5027981;28;20330;-23
2022/01/31 06:24:46;;;;;;;10.97;1.83;;;8.30;99.90;;;;;;5027991;28;20233;-25
2022/01/31 06:27:14;;;;;;;10.93;1.70;;;8.30;99.90;;;;;;5025425;28;20240;-25
2022/01/31 06:29:41;;;;;;;12.03;2.37;;;8.20;99.90;;;;;;5027702;28;20205;-25
2022/01/31 06:32:09;;;;;;;11.87;2.10;;;8.20;99.90;;;;;;5026738;28;20335;-25
2022/01/31 06:34:38;;;;;;;8.93;2.00;;;8.20;99.90;;;;;;5026788;28;20571;-24
2022/01/31 06:37:05;;;;;;;9.13;1.90;;;8.20;99.90;;;;;;5027596;28;20215;-25
2022/01/31 06:39:32;;;;;;;8.77;2.20;;;8.20;99.90;;;;;;5027764;28;20205;-24
2022/01/31 06:42:01;;;;;;;13.97;2.33;;;8.20;99.90;;;;;;5027476;28;20231;-24
2022/01/31 06:44:32;;;;;;;15.20;2.57;;;8.20;99.90;;;;;;5027354;28;20211;-24
2022/01/31 06:47:02;;;;;;;10.23;2.17;;;8.20;99.90;;;;;;5026769;28;20326;-24
2022/01/31 06:49:29;;;;;;;13.70;2.53;;;8.20;99.90;;;;;;5025704;28;20727;-24
2022/01/31 06:51:57;;;;;;;13.50;2.70;;;8.20;99.90;;;;;;5026979;28;20631;-24
2022/01/31 06:54:24;;;;;;;11.80;2.67;;;8.10;99.90;;;;;;5025615;28;20219;-25
2022/01/31 06:56:51;;;;;;;11.17;2.13;;;8.10;99.90;;;;;;5027509;28;20698;-25
2022/01/31 06:59:20;;;;;;;12.73;2.33;;;8.10;99.90;;;;;;5027736;28;20764;-25
2022/01/31 07:01:50;;;;;;;16.30;2.80;;;8.10;99.90;;;;;;5030779;28;20214;-23
2022/01/31 07:04:20;;;;;;;15.53;2.53;;;8.10;99.90;;;;;;5027881;28;20205;-23
2022/01/31 07:06:47;;;;;;;12.63;2.37;;;8.10;99.90;;;;;;5020842;28;20648;-23
2022/01/31 07:09:14;;;;;;;12.83;1.90;;;8.10;99.90;;;;;;5025559;28;20715;-23
2022/01/31 07:11:44;;;;;;;10.43;2.30;;;8.10;99.90;;;;;;5035504;28;20698;-23
2022/01/31 07:14:35;;;;;;;11.07;2.63;;;8.10;99.90;;;;;;5027639;28;20232;-23
2022/01/31 07:17:07;;;;;;;18.57;2.53;;;8.10;99.90;;;;;;5008734;28;20680;-23
2022/01/31 07:19:39;;;;;;;16.00;2.50;;;8.10;99.90;;;;;;5040493;28;20217;-23
2022/01/31 07:22:10;;;;;;;9.70;2.37;;;8.10;99.90;;;;;;5027501;28;20258;-23
2022/01/31 07:24:51;;;;;;;11.47;2.80;;;8.10;99.90;;;;;;5025869;28;20200;-23
2022/01/31 07:27:22;;;;;;;14.77;2.80;;;8.00;99.90;;;;;;5025010;28;20213;-23
2022/01/31 07:29:50;;;;;;;10.70;2.30;;;8.10;99.90;;;;;;5026947;28;20213;-23
2022/01/31 07:32:20;;;;;;;11.53;2.60;;;8.10;99.90;;;;;;5026792;28;20209;-23
2022/01/31 07:34:49;;;;;;;11.87;2.47;;;8.00;99.90;;;;;;5026819;28;20200;-23
2022/01/31 07:37:16;;;;;;;16.50;2.30;;;8.00;99.90;;;;;;5027165;28;20209;-25
2022/01/31 07:39:49;;;;;;;11.97;2.50;;;8.00;99.90;;;;;;5026864;28;20262;-23
2022/01/31 07:42:19;;;;;;;14.27;2.77;;;8.00;99.90;;;;;;5025335;28;20197;-23
2022/01/31 07:44:47;;;;;;;15.43;2.53;;;8.10;99.90;;;;;;5030164;28;20216;-23
2022/01/31 07:47:16;;;;;;;11.70;3.10;;;8.10;99.90;;;;;;5040800;28;20245;-23
2022/01/31 07:49:43;;;;;;;14.40;2.93;;;8.10;99.90;;;;;;5027149;28;20193;-23
2022/01/31 07:52:10;;;;;;;10.50;2.00;;;8.10;99.90;;;;;;5026626;28;20370;-23
2022/01/31 07:54:39;;;;;;;12.30;3.03;;;8.00;99.90;;;;;;5027150;28;20217;-23
2022/01/31 07:57:09;;;;;;;18.67;2.50;;;8.10;99.90;;;;;;5041466;28;20848;-23
2022/01/31 08:00:01;;;;;;;12.33;3.03;;;8.00;99.90;;;;;;5015774;28;20197;-23
2022/01/31 08:02:28;;;;;;;18.17;3.13;;;8.00;99.90;;;;;;5027029;28;20197;-23
2022/01/31 08:04:58;;;;;;;10.57;2.30;;;8.00;99.90;;;;;;5025500;28;20216;-23
2022/01/31 08:07:27;;;;;;;17.90;2.87;;;8.00;99.90;;;;;;5024946;28;20216;-23
2022/01/31 08:09:54;;;;;;;10.63;2.07;;;8.00;99.90;;;;;;5027365;28;20585;-23
2022/01/31 08:12:24;;;;;;;15.13;3.27;;;8.00;99.90;;;;;;5026937;28;20303;-23
2022/01/31 08:14:52;;;;;;;14.33;2.77;;;8.00;99.90;;;;;;5026282;28;20258;-23
2022/01/31 08:17:23;;;;;;;14.53;2.50;;;8.00;99.90;;;;;;5025219;28;20212;-23
2022/01/31 08:19:51;;;;;;;12.80;2.60;;;8.00;99.90;;;;;;5026582;28;20655;-23
2022/01/31 08:22:20;;;;;;;15.27;1.93;;;8.00;99.90;;;;;;5014165;28;20243;-23
2022/01/31 08:24:50;;;;;;;8.20;2.03;;;8.00;99.90;;;;;;5026702;28;20632;-23
2022/01/31 08:27:19;;;;;;;12.37;2.13;;;8.00;99.90;;;;;;5026621;28;20245;-23
2022/01/31 08:29:47;;;;;;;12.37;2.40;;;8.00;99.90;;;;;;5023336;28;20683;-23
2022/01/31 08:32:20;;;;;;;13.10;2.93;;;8.00;99.90;;;;;;5027428;28;20200;-23
2022/01/31 08:37:38;;;;;;;12.00;2.40;;;8.00;99.90;;;;;;5025383;28;20709;-23
2022/01/31 08:40:06;;;;;;;14.30;2.80;;;8.00;99.90;;;;;;5047329;28;20692;-23
2022/01/31 08:42:33;;;;;;;15.03;3.37;;;8.00;99.90;;;;;;5030634;28;20249;-23
2022/01/31 08:45:01;;;;;;;12.80;2.80;;;8.00;99.90;;;;;;5029175;28;20232;-23
2022/01/31 08:47:28;;;;;;;14.20;2.93;;;8.00;99.90;;;;;;5029587;28;20213;-23
2022/01/31 08:49:56;;;;;;;10.27;1.97;;;8.00;99.90;;;;;;5022042;28;20201;-24
2022/01/31 08:52:23;;;;;;;19.70;2.80;;;8.10;99.90;;;;;;5034068;28;20204;-23
2022/01/31 08:54:50;;;;;;;10.73;2.17;;;8.00;99.90;;;;;;5030013;28;20292;-23
2022/01/31 08:57:18;;;;;;;10.17;3.27;;;8.00;99.90;;;;;;5029219;28;20209;-23
2022/01/31 08:59:50;;;;;;;12.83;2.53;;;8.00;99.90;;;;;;5061143;28;20213;-23
2022/01/31 09:02:29;;;;;;;11.00;2.37;;;8.00;99.90;;;;;;5029239;28;20204;-23
2022/01/31 09:04:57;;;;;;;15.50;2.80;;;8.00;99.90;;;;;;5027736;28;20683;-23
2022/01/31 09:07:25;;;;;;;17.27;2.83;;;8.00;99.90;;;;;;5023976;28;20602;-23
2022/01/31 09:09:53;;;;;;;19.20;2.80;;;8.00;99.90;;;;;;5042894;28;20228;-23
2022/01/31 09:12:26;;;;;;;16.67;3.00;;;8.10;99.90;;;;;;5018012;28;20292;-23
2022/01/31 09:14:53;;;;;;;14.17;2.80;;;8.00;99.90;;;;;;5025975;28;20692;-23
2022/01/31 09:17:23;;;;;;;18.03;2.63;;;8.00;99.90;;;;;;5027251;28;20197;-23
2022/01/31 09:19:52;;;;;;;16.10;3.07;;;8.00;99.90;;;;;;5028120;28;20228;-23
2022/01/31 09:22:24;;;;;;;17.53;2.20;;;8.00;99.90;;;;;;5028536;28;20205;-23
2022/01/31 09:24:55;;;;;;;15.83;2.67;;;8.00;99.90;;;;;;5029288;28;20219;-23
2022/01/31 09:27:28;;;;;;;15.43;2.63;;;8.00;99.90;;;;;;5010515;28;20219;-23
2022/01/31 09:29:56;;;;;;;15.13;2.63;;;8.00;99.90;;;;;;5028476;28;20197;-23
2022/01/31 09:32:24;;;;;;;11.50;2.23;;;8.00;99.90;;;;;;5029153;28;20213;-23
2022/01/31 09:34:55;;;;;;;12.27;2.20;;;8.00;99.90;;;;;;5029509;28;20292;-23
2022/01/31 09:37:25;;;;;;;13.37;3.03;;;8.00;99.90;;;;;;5028987;28;20240;-23
2022/01/31 09:39:53;;;;;;;14.33;2.77;;;8.00;99.90;;;;;;5028495;28;20633;-23
2022/01/31 09:42:31;;;;;;;13.03;2.80;;;8.00;99.90;;;;;;5025264;28;20308;-23
2022/01/31 09:45:10;;;;;;;14.10;2.83;;;8.00;99.90;;;;;;5025170;28;20185;-23
2022/01/31 09:50:27;;;;;;;13.60;2.50;;;8.10;99.90;;;;;;5036147;28;20228;-23
2022/01/31 09:52:58;;;;;;;15.53;2.83;;;8.00;99.90;;;;;;5030342;28;20711;-23
2022/01/31 09:55:26;;;;;;;14.97;2.30;;;8.00;99.90;;;;;;5017823;28;20205;-23
2022/01/31 09:57:54;;;;;;;13.20;2.53;;;8.00;99.90;;;;;;5030744;28;20204;-23
2022/01/31 10:00:34;;;;;;;18.47;2.97;;;8.10;99.90;;;;;;5030855;28;20994;-23
2022/01/31 10:03:09;;;;;;;11.83;2.57;;;8.10;99.90;;;;;;5027669;28;20197;-23
2022/01/31 10:05:38;;;;;;;18.57;3.53;;;8.10;99.90;;;;;;5028676;28;20204;-23
2022/01/31 10:08:17;;;;;;;13.50;2.37;;;8.10;99.90;;;;;;5028754;28;20698;-23
2022/01/31 10:10:47;;;;;;;10.80;2.50;;;8.00;99.90;;;;;;5025852;28;20201;-24
2022/01/31 10:16:28;;;;;;;11.93;2.70;;;8.00;99.90;;;;;;5028876;28;20212;-23
2022/01/31 10:19:10;;;;;;;13.13;2.70;;;8.00;99.90;;;;;;5028084;28;20192;-23
2022/01/31 10:22:16;;;;;;;13.97;2.67;;;8.00;99.90;;;;;;5028467;28;20213;-23
2022/01/31 10:24:46;;;;;;;8.80;2.23;;;8.00;99.90;;;;;;5005992;28;20221;-23
2022/01/31 10:27:20;;;;;;;10.40;2.33;;;8.00;99.90;;;;;;5052745;28;20216;-23
2022/01/31 10:29:49;;;;;;;13.97;2.40;;;8.00;99.90;;;;;;5027510;28;20331;-23
2022/01/31 10:32:31;;;;;;;13.03;2.43;;;8.00;99.90;;;;;;5026457;28;20221;-23
2022/01/31 10:35:01;;;;;;;13.13;2.63;;;8.10;99.90;;;;;;5044088;28;20754;-23
2022/01/31 10:37:30;;;;;;;15.93;3.23;;;8.10;99.90;;;;;;5057406;28;20197;-23
2022/01/31 10:56:54;;;;;;;13.67;3.13;;;8.20;99.90;;;;;;5021654;28;20226;-23
2022/01/31 10:59:39;;;;;;;15.67;2.83;;;8.20;99.90;;;;;;5028428;28;20295;-23
2022/01/31 11:02:15;;;;;;;14.43;3.17;;;8.20;99.90;;;;;;5026694;28;20695;-23
2022/01/31 11:04:44;;;;;;;17.50;3.47;;;8.20;99.90;;;;;;5024597;28;20952;-23
2022/01/31 11:07:14;;;;;;;14.93;3.20;;;8.20;99.90;;;;;;5028389;28;20794;-23
2022/01/31 11:09:45;;;;;;;11.37;2.70;;;8.20;99.90;;;;;;5026643;28;20231;-23
2022/01/31 11:12:13;;;;;;;15.73;3.17;;;8.20;99.90;;;;;;5026122;28;20208;-23
2022/01/31 11:14:45;;;;;;;16.03;2.87;;;8.20;99.90;;;;;;5029454;28;20203;-23
2022/01/31 11:17:15;;;;;;;17.27;2.80;;;8.20;99.90;;;;;;5026149;28;20303;-23
2022/01/31 11:19:49;;;;;;;16.50;3.60;;;8.10;99.90;;;;;;5006516;28;20565;-23
2022/01/31 11:22:27;;;;;;;20.30;2.97;;;8.10;99.90;;;;;;5024119;28;20204;-23
2022/01/31 11:25:22;;;;;;;17.13;3.40;;;8.10;99.90;;;;;;5027666;28;20344;-23
2022/01/31 11:27:57;;;;;;;16.80;3.27;;;8.10;99.90;;;;;;5026059;28;20603;-23
2022/01/31 11:30:25;;;;;;;15.40;3.57;;;8.10;99.90;;;;;;5026573;28;20299;-24
2022/01/31 11:32:54;;;;;;;20.33;4.07;;;8.00;99.90;;;;;;5025832;28;20653;-24
2022/01/31 11:35:22;;;;;;;23.17;4.03;;;8.10;99.90;;;;;;5024520;28;20531;-23
2022/01/31 11:37:53;;;;;;;21.57;3.77;;;8.00;99.90;;;;;;5025473;28;20288;-24
2022/01/31 11:40:21;;;;;;;18.13;3.33;;;8.00;99.90;;;;;;5026703;28;20201;-23
2022/01/31 11:42:50;;;;;;;30.20;5.00;;;8.00;99.90;;;;;;5026060;28;20332;-24
2022/01/31 11:45:32;;;;;;;24.90;4.27;;;8.00;99.90;;;;;;5020854;28;21504;-23
2022/01/31 11:48:06;;;;;;;19.40;3.83;;;8.00;99.90;;;;;;5026254;28;20659;-23
2022/01/31 11:50:42;;;;;;;20.23;3.63;;;8.00;99.90;;;;;;5024754;28;20236;-23
2022/01/31 11:53:10;;;;;;;27.57;4.83;;;7.90;99.90;;;;;;5025085;28;20209;-24
2022/01/31 11:55:38;;;;;;;21.27;4.07;;;7.90;99.90;;;;;;5024530;28;20212;-23
2022/01/31 11:58:17;;;;;;;19.63;3.27;;;7.80;99.90;;;;;;5026337;28;20331;-23
2022/01/31 12:00:46;;;;;;;14.97;3.30;;;7.80;99.90;;;;;;5026292;28;20709;-23
2022/01/31 12:03:19;;;;;;;27.70;4.43;;;7.80;99.90;;;;;;5029571;28;20205;-23
2022/01/31 12:05:51;;;;;;;25.27;4.70;;;7.80;99.90;;;;;;5031189;28;20629;-23
2022/01/31 12:08:21;;;;;;;14.60;3.63;;;7.80;99.90;;;;;;5025271;28;20201;-24
2022/01/31 12:10:56;;;;;;;23.20;3.37;;;7.80;99.90;;;;;;5031004;28;20213;-23
2022/01/31 12:13:45;;;;;;;17.33;3.23;;;7.80;99.90;;;;;;5030746;28;20210;-23
2022/01/31 12:16:50;;;;;;;14.63;2.80;;;7.80;99.90;;;;;;5029772;28;20231;-23
2022/01/31 12:21:52;;;;;;;18.03;3.57;;;7.80;99.90;;;;;;5030404;28;20220;-23
2022/01/31 12:22:44;;;;;;;19.03;3.67;;;7.80;99.90;;;;;;5026421;28;20204;-23
2022/01/31 12:25:28;;;;;;;16.13;3.03;;;7.80;99.90;;;;;;5027095;28;20351;-24
2022/01/31 12:27:57;;;;;;;18.07;3.17;;;7.70;99.90;;;;;;5015530;28;20208;-24
2022/01/31 12:30:35;;;;;;;17.53;3.97;;;7.80;99.90;;;;;;5029231;28;20220;-24
2022/01/31 12:33:03;;;;;;;13.53;3.20;;;7.80;99.90;;;;;;5030757;28;20280;-23
2022/01/31 12:35:36;;;;;;;21.60;4.00;;;7.80;99.90;;;;;;5029983;28;20312;-24
2022/01/31 12:38:08;;;;;;;21.23;4.33;;;7.80;99.90;;;;;;5030290;28;20197;-23
2022/01/31 12:40:46;;;;;;;20.27;3.73;;;7.80;99.90;;;;;;5030196;28;20579;-23
2022/01/31 12:46:06;;;;;;;17.67;3.20;;;7.80;99.90;;;;;;5025614;28;20217;-23
2022/01/31 12:48:36;;;;;;;19.60;3.43;;;7.80;99.90;;;;;;5027594;28;20201;-23
2022/01/31 12:51:06;;;;;;;19.03;4.17;;;7.80;99.90;;;;;;5019623;28;20567;-23
2022/01/31 12:53:39;;;;;;;24.50;4.23;;;7.70;99.90;;;;;;5029013;28;20240;-23
2022/01/31 12:56:26;;;;;;;22.27;4.97;;;7.70;99.90;;;;;;5026994;28;20207;-24
2022/01/31 12:59:08;;;;;;;20.67;4.03;;;7.70;99.90;;;;;;5030174;28;20205;-23
2022/01/31 13:01:46;;;;;;;22.23;4.27;;;7.70;99.90;;;;;;5026683;28;20869;-23
2022/01/31 13:04:24;;;;;;;27.20;4.60;;;7.70;99.90;;;;;;5028111;28;20287;-23
2022/01/31 13:06:59;;;;;;;20.43;4.53;;;7.70;99.90;;;;;;5027648;28;20648;-23
2022/01/31 13:09:47;;;;;;;20.97;4.07;;;7.60;99.90;;;;;;5023811;28;20239;-23
2022/01/31 13:12:21;;;;;;;30.20;5.43;;;7.60;99.90;;;;;;5027365;28;20213;-23
2022/01/31 13:14:51;;;;;;;29.40;4.47;;;7.60;99.90;;;;;;5026231;28;20308;-23
2022/01/31 13:17:21;;;;;;;22.83;4.00;;;7.60;99.90;;;;;;5026251;28;20720;-26
2022/01/31 13:19:59;;;;;;;28.47;5.90;;;7.60;99.90;;;;;;5044055;28;20205;-25
2022/01/31 13:22:37;;;;;;;23.90;5.13;;;7.60;99.90;;;;;;5027431;28;20251;-25
2022/01/31 13:25:09;;;;;;;17.07;3.87;;;7.60;99.90;;;;;;5026337;28;20209;-25
2022/01/31 13:28:00;;;;;;;25.50;5.07;;;7.60;99.90;;;;;;5022500;28;20611;-25
2022/01/31 13:30:31;;;;;;;23.23;4.53;;;7.60;99.90;;;;;;5027584;28;20224;-25
2022/01/31 13:33:06;;;;;;;23.77;5.80;;;7.60;99.90;;;;;;5027936;28;20672;-25
2022/01/31 13:35:37;;;;;;;27.33;4.30;;;7.60;99.90;;;;;;5024347;28;20317;-25
2022/01/31 13:38:08;;;;;;;24.30;4.80;;;7.60;99.90;;;;;;5026838;28;20213;-25